createdAt,value
2017-02-10T00:00:16.363Z,124.38
2017-02-10T00:01:16.393Z,124.37
2017-02-10T00:02:16.489Z,124.31
2017-02-10T00:03:16.394Z,126.1
2017-02-10T00:04:16.372Z,127.23
2017-02-10T00:05:16.394Z,128
2017-02-10T00:06:16.380Z,126.75
2017-02-10T00:07:16.392Z,126.07
2017-02-10T00:08:16.383Z,125.43
2017-02-10T00:09:16.385Z,127
2017-02-10T00:10:16.385Z,127.44
2017-02-10T00:11:16.387Z,127.96
2017-02-10T00:12:16.385Z,128.21
2017-02-10T00:13:16.474Z,124.96
2017-02-10T00:14:16.381Z,129.46
2017-02-10T00:15:16.391Z,127.91
2017-02-10T00:16:16.471Z,128.15
2017-02-10T00:17:16.387Z,127.1
2017-02-10T00:18:16.389Z,126.75
2017-02-10T00:19:16.387Z,127.3
2017-02-10T00:20:16.413Z,127.51
2017-02-10T00:21:16.391Z,127.59
2017-02-10T00:22:16.393Z,127.01
2017-02-10T00:23:16.385Z,127.13
2017-02-10T00:24:16.392Z,126.77
2017-02-10T00:25:16.399Z,126.54
2017-02-10T00:26:16.400Z,127.01
2017-02-10T00:27:16.382Z,127.96
2017-02-10T00:28:16.390Z,127.75
2017-02-10T00:29:16.379Z,127.23
2017-02-10T00:30:16.388Z,128.48
2017-02-10T00:31:16.406Z,127.74
2017-02-10T00:32:16.391Z,127.96
2017-02-10T00:33:16.406Z,127.29
2017-02-10T00:34:16.385Z,127.72
2017-02-10T00:35:16.399Z,126.47
2017-02-10T00:36:16.401Z,125.24
2017-02-10T00:37:16.398Z,124.44
2017-02-10T00:38:16.414Z,123.19
2017-02-10T00:39:16.393Z,124.15
2017-02-10T00:40:16.398Z,123.88
2017-02-10T00:41:16.400Z,124.55
2017-02-10T00:42:16.396Z,124.83
2017-02-10T00:43:16.411Z,126.15
2017-02-10T00:44:16.413Z,125.05
2017-02-10T00:45:16.395Z,125.86
2017-02-10T00:46:16.402Z,127.03
2017-02-10T00:47:16.407Z,127.26
2017-02-10T00:48:16.406Z,127.01
2017-02-10T00:49:16.398Z,125.95
2017-02-10T00:50:16.408Z,124.96
2017-02-10T00:51:16.397Z,124.47
2017-02-10T00:52:16.416Z,123.95
2017-02-10T00:53:16.416Z,123.11
2017-02-10T00:54:16.418Z,122.48
2017-02-10T00:55:16.404Z,122.6
2017-02-10T00:56:16.420Z,123.74
2017-02-10T00:57:16.427Z,123.91
2017-02-10T00:58:16.468Z,123.9
2017-02-10T00:59:16.418Z,123.39
2017-02-10T01:00:16.430Z,123.86
2017-02-10T01:01:16.406Z,125.94
2017-02-10T01:02:16.409Z,126.93
2017-02-10T01:03:16.406Z,126.9
2017-02-10T01:04:16.442Z,127.59
2017-02-10T01:05:16.416Z,128.13
2017-02-10T01:06:16.421Z,127.36
2017-02-10T01:07:16.434Z,127.35
2017-02-10T01:08:16.422Z,127.84
2017-02-10T01:09:16.414Z,125.81
2017-02-10T01:10:16.419Z,126.4
2017-02-10T01:11:16.431Z,126.13
2017-02-10T01:12:16.421Z,125.88
2017-02-10T01:13:16.416Z,126.44
2017-02-10T01:14:16.410Z,126.13
2017-02-10T01:15:16.424Z,126.33
2017-02-10T01:16:16.423Z,126.05
2017-02-10T01:17:16.413Z,126.43
2017-02-10T01:18:16.443Z,125.58
2017-02-10T01:19:16.421Z,124.61
2017-02-10T01:20:16.435Z,123.99
2017-02-10T01:21:16.423Z,123.01
2017-02-10T01:22:16.453Z,125.33
2017-02-10T01:23:16.420Z,126.53
2017-02-10T01:24:16.433Z,127.31
2017-02-10T01:25:16.426Z,127.76
2017-02-10T01:26:16.417Z,128.75
2017-02-10T01:27:16.423Z,128.03
2017-02-10T01:28:16.420Z,128.93
2017-02-10T01:29:16.435Z,128.73
2017-02-10T01:30:16.431Z,128.49
2017-02-10T01:31:16.438Z,127.07
2017-02-10T01:32:16.423Z,126.16
2017-02-10T01:33:16.432Z,125.19
2017-02-10T01:34:16.435Z,126.41
2017-02-10T01:35:16.428Z,127.11
2017-02-10T01:36:16.424Z,127.15
2017-02-10T01:37:16.429Z,128.23
2017-02-10T01:38:16.439Z,128.59
2017-02-10T01:39:16.433Z,129.78
2017-02-10T01:40:16.427Z,129.78
2017-02-10T01:41:16.439Z,129.75
2017-02-10T01:42:16.430Z,129.29
2017-02-10T01:43:16.442Z,129.06
2017-02-10T01:44:16.444Z,129.04
2017-02-10T01:45:16.447Z,127.95
2017-02-10T01:46:16.448Z,128.43
2017-02-10T01:47:16.448Z,127.95
2017-02-10T01:48:16.439Z,126.91
2017-02-10T01:49:16.448Z,126.37
2017-02-10T01:50:16.441Z,126.91
2017-02-10T01:51:16.448Z,125.58
2017-02-10T01:52:16.432Z,126.46
2017-02-10T01:53:16.445Z,126.85
2017-02-10T01:54:16.452Z,127.96
2017-02-10T01:55:16.445Z,127.16
2017-02-10T01:56:16.445Z,126.73
2017-02-10T01:57:16.449Z,127.8
2017-02-10T01:58:16.445Z,128.08
2017-02-10T01:59:16.467Z,128.49
2017-02-10T02:00:16.460Z,128.94
2017-02-10T02:01:16.444Z,129.75
2017-02-10T02:02:16.456Z,128.52
2017-02-10T02:03:16.453Z,128.48
2017-02-10T02:04:16.465Z,127.36
2017-02-10T02:05:16.454Z,126.85
2017-02-10T02:06:16.465Z,127.09
2017-02-10T02:07:16.451Z,126.37
2017-02-10T02:08:16.444Z,125.87
2017-02-10T02:09:16.457Z,125.68
2017-02-10T02:10:16.461Z,126.14
2017-02-10T02:11:16.450Z,125.92
2017-02-10T02:12:16.452Z,126.88
2017-02-10T02:13:16.474Z,127.09
2017-02-10T02:14:16.465Z,126.78
2017-02-10T02:15:16.462Z,126.57
2017-02-10T02:16:16.453Z,126.78
2017-02-10T02:17:16.457Z,126.83
2017-02-10T02:18:16.466Z,127.01
2017-02-10T02:19:16.818Z,125.95
2017-02-10T02:20:16.465Z,124.25
2017-02-10T02:21:16.450Z,125.06
2017-02-10T02:22:16.457Z,126.21
2017-02-10T02:23:16.457Z,125.66
2017-02-10T02:24:16.463Z,125.39
2017-02-10T02:25:16.463Z,126.42
2017-02-10T02:26:16.454Z,126.61
2017-02-10T02:27:16.459Z,126.18
2017-02-10T02:28:16.468Z,126.41
2017-02-10T02:29:16.457Z,125.58
2017-02-10T02:30:16.468Z,125.88
2017-02-10T02:31:16.464Z,126.33
2017-02-10T02:32:16.464Z,126.39
2017-02-10T02:33:16.457Z,126.87
2017-02-10T02:34:16.469Z,127.76
2017-02-10T02:35:16.470Z,128.01
2017-02-10T02:36:16.458Z,130.24
2017-02-10T02:37:16.469Z,130.18
2017-02-10T02:38:16.476Z,130.92
2017-02-10T02:39:16.467Z,129.95
2017-02-10T02:40:16.458Z,130.21
2017-02-10T02:41:16.483Z,130.17
2017-02-10T02:42:16.473Z,129.72
2017-02-10T02:43:16.471Z,128.75
2017-02-10T02:44:16.481Z,127.69
2017-02-10T02:45:16.464Z,126.75
2017-02-10T02:46:16.477Z,126.99
2017-02-10T02:47:16.477Z,126.53
2017-02-10T02:48:16.480Z,125.44
2017-02-10T02:49:16.487Z,124.97
2017-02-10T02:50:16.484Z,124.42
2017-02-10T02:51:16.476Z,123.41
2017-02-10T02:52:16.474Z,123.54
2017-02-10T02:53:16.473Z,123.8
2017-02-10T02:54:16.478Z,119.45
2017-02-10T02:55:16.479Z,123.93
2017-02-10T02:56:16.485Z,124.94
2017-02-10T02:57:16.484Z,122.65
2017-02-10T02:58:16.480Z,123.64
2017-02-10T02:59:16.474Z,125.15
2017-02-10T03:00:16.500Z,124.81
2017-02-10T03:01:16.480Z,125.04
2017-02-10T03:02:16.486Z,126.24
2017-02-10T03:03:16.475Z,126.47
2017-02-10T03:04:16.483Z,126.4
2017-02-10T03:05:16.481Z,126.91
2017-02-10T03:06:16.485Z,125.14
2017-02-10T03:07:16.486Z,124.62
2017-02-10T03:08:16.488Z,124.14
2017-02-10T03:09:16.487Z,123.94
2017-02-10T03:10:16.491Z,124.64
2017-02-10T03:11:16.475Z,125.52
2017-02-10T03:12:16.479Z,125.02
2017-02-10T03:13:16.488Z,124.75
2017-02-10T03:14:16.490Z,124.79
2017-02-10T03:15:16.485Z,124.23
2017-02-10T03:16:16.499Z,122.89
2017-02-10T03:17:16.489Z,121.92
2017-02-10T03:18:16.493Z,119.35
2017-02-10T03:19:16.504Z,119.2
2017-02-10T03:20:16.487Z,118.89
2017-02-10T03:21:16.502Z,118.09
2017-02-10T03:22:16.495Z,116.85
2017-02-10T03:23:16.485Z,117.68
2017-02-10T03:24:16.493Z,117
2017-02-10T03:25:16.504Z,116.85
2017-02-10T03:26:16.495Z,114.09
2017-02-10T03:27:16.503Z,113.25
2017-02-10T03:28:16.501Z,113.55
2017-02-10T03:29:16.493Z,113.22
2017-02-10T03:30:16.502Z,112.48
2017-02-10T03:31:16.496Z,114.79
2017-02-10T03:32:16.497Z,114.22
2017-02-10T03:33:16.494Z,114.24
2017-02-10T03:34:16.497Z,116.05
2017-02-10T03:35:16.496Z,116.63
2017-02-10T03:36:16.502Z,118.84
2017-02-10T03:37:16.492Z,117.86
2017-02-10T03:38:16.500Z,119.38
2017-02-10T03:39:16.506Z,119.31
2017-02-10T03:40:16.500Z,120.05
2017-02-10T03:41:16.505Z,121.84
2017-02-10T03:42:16.511Z,121.8
2017-02-10T03:43:16.515Z,122.53
2017-02-10T03:44:16.506Z,121.81
2017-02-10T03:45:16.504Z,122.06
2017-02-10T03:46:16.505Z,120.87
2017-02-10T03:47:16.514Z,119.46
2017-02-10T03:48:16.507Z,119.37
2017-02-10T03:49:16.507Z,116.61
2017-02-10T03:50:16.502Z,116.19
2017-02-10T03:51:16.508Z,115.16
2017-02-10T03:52:16.501Z,113.89
2017-02-10T03:53:16.529Z,113.88
2017-02-10T03:54:16.507Z,115.56
2017-02-10T03:55:16.531Z,115.63
2017-02-10T03:56:16.512Z,116.29
2017-02-10T03:57:16.538Z,116.91
2017-02-10T03:58:16.526Z,116.66
2017-02-10T03:59:16.523Z,117.1
2017-02-10T04:00:16.515Z,117.16
2017-02-10T04:01:16.519Z,117.63
2017-02-10T04:02:16.527Z,118.67
2017-02-10T04:03:16.518Z,119.91
2017-02-10T04:04:16.515Z,120.33
2017-02-10T04:05:16.525Z,121.35
2017-02-10T04:06:16.527Z,120.56
2017-02-10T04:07:16.520Z,119.1
2017-02-10T04:08:16.539Z,118.08
2017-02-10T04:09:16.517Z,117.82
2017-02-10T04:10:16.520Z,117.06
2017-02-10T04:11:16.516Z,118.05
2017-02-10T04:12:16.529Z,118.39
2017-02-10T04:13:16.525Z,117.73
2017-02-10T04:14:16.522Z,117.24
2017-02-10T04:15:16.526Z,117.72
2017-02-10T04:16:16.526Z,117.48
2017-02-10T04:17:16.530Z,116.7
2017-02-10T04:18:16.524Z,115.93
2017-02-10T04:19:16.542Z,115.48
2017-02-10T04:20:16.531Z,113.88
2017-02-10T04:21:16.535Z,112.9
2017-02-10T04:22:16.543Z,112.16
2017-02-10T04:23:16.533Z,112.66
2017-02-10T04:24:16.521Z,111.87
2017-02-10T04:25:16.523Z,113.11
2017-02-10T04:26:16.538Z,113.63
2017-02-10T04:27:16.527Z,113.05
2017-02-10T04:28:16.530Z,114.35
2017-02-10T04:29:16.540Z,113.26
2017-02-10T04:30:16.532Z,113.23
2017-02-10T04:31:16.530Z,115.26
2017-02-10T04:32:16.535Z,115.81
2017-02-10T04:33:16.537Z,117.22
2017-02-10T04:34:16.541Z,118.03
2017-02-10T04:35:16.537Z,118.78
2017-02-10T04:36:16.542Z,120.33
2017-02-10T04:37:16.529Z,122.02
2017-02-10T04:38:16.531Z,123.38
2017-02-10T04:39:16.547Z,123.27
2017-02-10T04:40:16.537Z,124.3
2017-02-10T04:41:16.544Z,125.02
2017-02-10T04:42:16.538Z,124.49
2017-02-10T04:43:16.533Z,122.95
2017-02-10T04:44:16.538Z,122.78
2017-02-10T04:45:16.539Z,121.77
2017-02-10T04:46:16.533Z,120.84
2017-02-10T04:47:16.541Z,120.66
2017-02-10T04:48:16.555Z,118.84
2017-02-10T04:49:16.543Z,117.35
2017-02-10T04:50:16.547Z,117.29
2017-02-10T04:51:16.543Z,118.38
2017-02-10T04:52:16.550Z,117.64
2017-02-10T04:53:16.536Z,118.07
2017-02-10T04:54:16.547Z,119.34
2017-02-10T04:55:16.563Z,119.79
2017-02-10T04:56:16.557Z,119.81
2017-02-10T04:57:16.554Z,120.75
2017-02-10T04:58:16.570Z,122.3
2017-02-10T04:59:16.550Z,123.76
2017-02-10T05:00:16.551Z,123.29
2017-02-10T05:01:16.557Z,122.55
2017-02-10T05:02:16.542Z,120.57
2017-02-10T05:03:16.561Z,117.55
2017-02-10T05:04:16.549Z,116.87
2017-02-10T05:05:16.546Z,115.13
2017-02-10T05:06:16.555Z,114.85
2017-02-10T05:07:16.547Z,115.37
2017-02-10T05:08:16.555Z,116.85
2017-02-10T05:09:16.547Z,115.07
2017-02-10T05:10:16.554Z,115.27
2017-02-10T05:11:16.563Z,114.43
2017-02-10T05:12:16.552Z,113.97
2017-02-10T05:13:16.560Z,113.95
2017-02-10T05:14:16.549Z,113.67
2017-02-10T05:15:16.564Z,112.72
2017-02-10T05:16:16.554Z,112.74
2017-02-10T05:17:16.561Z,112.73
2017-02-10T05:18:16.574Z,114.51
2017-02-10T05:19:16.559Z,110.95
2017-02-10T05:20:16.570Z,114.68
2017-02-10T05:21:16.558Z,115.7
2017-02-10T05:22:16.603Z,115.67
2017-02-10T05:23:16.568Z,115.23
2017-02-10T05:24:16.558Z,113.64
2017-02-10T05:25:16.577Z,113.59
2017-02-10T05:26:16.560Z,112.26
2017-02-10T05:27:16.571Z,111.47
2017-02-10T05:28:16.563Z,110.62
2017-02-10T05:29:16.570Z,110.8
2017-02-10T05:30:16.577Z,110.46
2017-02-10T05:31:16.566Z,110.91
2017-02-10T05:32:16.577Z,112.08
2017-02-10T05:33:16.572Z,111.87
2017-02-10T05:34:16.569Z,114.13
2017-02-10T05:35:16.569Z,114.61
2017-02-10T05:36:16.579Z,116.39
2017-02-10T05:37:16.565Z,115.59
2017-02-10T05:38:16.567Z,116.09
2017-02-10T05:39:16.587Z,116.83
2017-02-10T05:40:16.571Z,116.48
2017-02-10T05:41:16.583Z,116.96
2017-02-10T05:42:16.565Z,117.43
2017-02-10T05:43:16.573Z,117.76
2017-02-10T05:44:16.581Z,118.55
2017-02-10T05:45:16.570Z,119.54
2017-02-10T05:46:16.586Z,119.01
2017-02-10T05:47:16.576Z,118.76
2017-02-10T05:48:16.572Z,118.25
2017-02-10T05:49:16.578Z,116.51
2017-02-10T05:50:16.587Z,116.73
2017-02-10T05:51:16.728Z,114.99
2017-02-10T05:52:16.586Z,115.2
2017-02-10T05:53:16.585Z,114.21
2017-02-10T05:54:16.588Z,113.49
2017-02-10T05:55:16.586Z,112.8
2017-02-10T05:56:16.583Z,113.54
2017-02-10T05:57:16.592Z,113.53
2017-02-10T05:58:16.579Z,113.5
2017-02-10T05:59:16.709Z,114.54
2017-02-10T06:00:16.586Z,111.95
2017-02-10T06:01:16.649Z,112.24
2017-02-10T06:02:16.581Z,112.68
2017-02-10T06:03:16.589Z,112.94
2017-02-10T06:04:16.617Z,114.27
2017-02-10T06:05:16.605Z,114.44
2017-02-10T06:06:16.591Z,113.24
2017-02-10T06:07:16.607Z,113.51
2017-02-10T06:08:16.600Z,112.39
2017-02-10T06:09:16.618Z,111.74
2017-02-10T06:10:16.598Z,108.15
2017-02-10T06:11:16.585Z,111.71
2017-02-10T06:12:16.595Z,112.16
2017-02-10T06:13:16.601Z,111.94
2017-02-10T06:14:16.588Z,111.94
2017-02-10T06:15:16.588Z,111.43
2017-02-10T06:16:16.597Z,111.67
2017-02-10T06:17:16.588Z,110.67
2017-02-10T06:18:16.603Z,112.45
2017-02-10T06:19:16.596Z,111.67
2017-02-10T06:20:16.598Z,112.43
2017-02-10T06:21:16.607Z,112.93
2017-02-10T06:22:16.599Z,111.94
2017-02-10T06:23:16.602Z,112.73
2017-02-10T06:24:16.593Z,112.4
2017-02-10T06:25:16.608Z,111.92
2017-02-10T06:26:16.611Z,111.96
2017-02-10T06:27:16.602Z,112.86
2017-02-10T06:28:16.598Z,113.17
2017-02-10T06:29:16.589Z,113.7
2017-02-10T06:30:16.600Z,112.78
2017-02-10T06:31:16.606Z,111.01
2017-02-10T06:32:16.604Z,109.27
2017-02-10T06:33:16.603Z,107.96
2017-02-10T06:34:16.603Z,107.23
2017-02-10T06:35:16.600Z,106.82
2017-02-10T06:36:16.615Z,106.83
2017-02-10T06:37:16.605Z,107.61
2017-02-10T06:38:16.596Z,107.8
2017-02-10T06:39:16.602Z,109.02
2017-02-10T06:40:16.649Z,108.28
2017-02-10T06:41:16.616Z,107.25
2017-02-10T06:42:16.613Z,107.49
2017-02-10T06:43:16.609Z,106.06
2017-02-10T06:44:16.610Z,106.23
2017-02-10T06:45:16.612Z,106.48
2017-02-10T06:46:16.613Z,107.44
2017-02-10T06:47:16.705Z,108.44
2017-02-10T06:48:16.608Z,110.48
2017-02-10T06:49:16.670Z,111.73
2017-02-10T06:50:16.609Z,113.02
2017-02-10T06:51:16.621Z,112.41
2017-02-10T06:52:16.613Z,111.23
2017-02-10T06:53:16.612Z,111.24
2017-02-10T06:54:16.621Z,112.72
2017-02-10T06:55:16.953Z,113
2017-02-10T06:56:16.621Z,111.48
2017-02-10T06:57:16.661Z,111.29
2017-02-10T06:58:16.622Z,111.76
2017-02-10T06:59:16.615Z,111.09
2017-02-10T07:00:16.609Z,110.74
2017-02-10T07:01:16.626Z,109.25
2017-02-10T07:02:16.618Z,108.59
2017-02-10T07:03:16.621Z,107.54
2017-02-10T07:04:16.624Z,108.25
2017-02-10T07:05:16.651Z,107.27
2017-02-10T07:06:16.618Z,107.79
2017-02-10T07:07:16.623Z,108.25
2017-02-10T07:08:16.642Z,108.5
2017-02-10T07:09:16.618Z,110.82
2017-02-10T07:10:16.685Z,113.28
2017-02-10T07:11:16.754Z,113.8
2017-02-10T07:12:16.632Z,114.88
2017-02-10T07:13:16.624Z,114.07
2017-02-10T07:14:16.631Z,113.86
2017-02-10T07:15:16.623Z,113.08
2017-02-10T07:16:16.629Z,113.84
2017-02-10T07:17:16.625Z,113.04
2017-02-10T07:18:16.630Z,112.32
2017-02-10T07:19:16.660Z,111.78
2017-02-10T07:20:16.686Z,113.1
2017-02-10T07:21:16.679Z,113.05
2017-02-10T07:22:16.660Z,113.55
2017-02-10T07:23:16.698Z,115.61
2017-02-10T07:24:16.633Z,114.49
2017-02-10T07:25:16.676Z,115.83
2017-02-10T07:26:16.628Z,116.02
2017-02-10T07:27:16.653Z,115.99
2017-02-10T07:28:16.713Z,118.45
2017-02-10T07:29:16.692Z,118.91
2017-02-10T07:30:16.645Z,120.27
2017-02-10T07:31:16.634Z,120
2017-02-10T07:32:16.639Z,120.53
2017-02-10T07:33:16.791Z,120.21
2017-02-10T07:34:16.645Z,120.19
2017-02-10T07:35:16.668Z,121.47
2017-02-10T07:36:16.711Z,122.74
2017-02-10T07:37:17.203Z,123.86
2017-02-10T07:38:16.634Z,122.63
2017-02-10T07:39:16.645Z,123.4
2017-02-10T07:40:16.698Z,123.93
2017-02-10T07:41:16.636Z,121.35
2017-02-10T07:42:16.652Z,127.88
2017-02-10T07:43:16.684Z,129.89
2017-02-10T07:44:16.633Z,131.84
2017-02-10T07:45:16.810Z,132.84
2017-02-10T07:46:16.645Z,132.53
2017-02-10T07:47:16.649Z,133.48
2017-02-10T07:48:16.642Z,134.07
2017-02-10T07:49:16.656Z,134.34
2017-02-10T07:50:16.701Z,132.59
2017-02-10T07:51:16.688Z,132.1
2017-02-10T07:52:16.665Z,133.61
2017-02-10T07:53:16.649Z,132.83
2017-02-10T07:54:16.659Z,132.52
2017-02-10T07:55:16.647Z,133.76
2017-02-10T07:56:16.730Z,135.72
2017-02-10T07:57:16.651Z,136.21
2017-02-10T07:58:16.661Z,137.49
2017-02-10T07:59:16.663Z,137.71
2017-02-10T08:00:16.655Z,138.71
2017-02-10T08:01:16.655Z,139.42
2017-02-10T08:02:16.648Z,140.7
2017-02-10T08:03:16.647Z,141.59
2017-02-10T08:04:16.758Z,143.65
2017-02-10T08:05:16.695Z,144.11
2017-02-10T08:06:16.690Z,145.57
2017-02-10T08:07:16.660Z,147.87
2017-02-10T08:08:16.763Z,149.59
2017-02-10T08:09:16.774Z,149.66
2017-02-10T08:10:16.799Z,149.62
2017-02-10T08:11:16.665Z,150.8
2017-02-10T08:12:16.742Z,152.27
2017-02-10T08:13:16.665Z,154.76
2017-02-10T08:14:16.658Z,154.94
2017-02-10T08:15:16.665Z,156.9
2017-02-10T08:16:16.656Z,157.6
2017-02-10T08:17:16.665Z,159.81
2017-02-10T08:18:16.657Z,161.96
2017-02-10T08:19:16.662Z,163.68
2017-02-10T08:20:16.666Z,166.44
2017-02-10T08:21:16.666Z,168.08
2017-02-10T08:22:16.745Z,169.71
2017-02-10T08:23:16.666Z,170.23
2017-02-10T08:24:16.673Z,170.78
2017-02-10T08:25:16.672Z,169.73
2017-02-10T08:26:16.686Z,169.57
2017-02-10T08:27:16.668Z,168.59
2017-02-10T08:28:16.674Z,169.53
2017-02-10T08:29:16.665Z,171.97
2017-02-10T08:30:16.702Z,173.72
2017-02-10T08:31:16.689Z,176.32
2017-02-10T08:32:16.677Z,178.54
2017-02-10T08:33:16.683Z,180.9
2017-02-10T08:34:16.757Z,178.63
2017-02-10T08:35:16.674Z,185
2017-02-10T08:36:16.681Z,186.42
2017-02-10T08:37:16.677Z,186.68
2017-02-10T08:38:16.678Z,186.41
2017-02-10T08:39:17.296Z,188.07
2017-02-10T08:40:16.686Z,188.99
2017-02-10T08:41:16.680Z,189.23
2017-02-10T08:42:16.682Z,190.68
2017-02-10T08:43:16.681Z,191.08
2017-02-10T08:44:16.689Z,191.11
2017-02-10T08:45:16.675Z,192.81
2017-02-10T08:46:16.672Z,194.01
2017-02-10T08:47:16.678Z,194.7
2017-02-10T08:48:16.688Z,197.09
2017-02-10T08:49:16.682Z,199.25
2017-02-10T08:50:16.695Z,200.89
2017-02-10T08:51:16.679Z,203.86
2017-02-10T08:52:16.717Z,206.64
2017-02-10T08:53:16.696Z,209.79
2017-02-10T08:54:16.685Z,210.96
2017-02-10T08:55:16.677Z,214.08
2017-02-10T08:56:16.693Z,218.01
2017-02-10T08:57:16.693Z,219.08
2017-02-10T08:58:16.685Z,221.91
2017-02-10T08:59:16.686Z,223.32
2017-02-10T09:00:16.692Z,226.41
2017-02-10T09:01:16.700Z,229.28
2017-02-10T09:02:16.691Z,231.15
2017-02-10T09:03:16.693Z,233.75
2017-02-10T09:04:16.704Z,235.46
2017-02-10T09:05:16.689Z,237.6
2017-02-10T09:06:16.719Z,239.92
2017-02-10T09:07:16.686Z,241.56
2017-02-10T09:08:16.692Z,244.38
2017-02-10T09:09:16.726Z,245.55
2017-02-10T09:10:16.705Z,246.7
2017-02-10T09:11:16.703Z,248.79
2017-02-10T09:12:16.700Z,250.66
2017-02-10T09:13:16.708Z,251.88
2017-02-10T09:14:16.700Z,253.91
2017-02-10T09:15:16.694Z,254.65
2017-02-10T09:16:16.700Z,255.59
2017-02-10T09:17:16.690Z,258.1
2017-02-10T09:18:16.695Z,260.04
2017-02-10T09:19:16.702Z,260.92
2017-02-10T09:20:16.699Z,259.79
2017-02-10T09:21:16.717Z,258.32
2017-02-10T09:22:16.703Z,256.96
2017-02-10T09:23:16.708Z,255.25
2017-02-10T09:24:16.781Z,256
2017-02-10T09:25:16.706Z,257.17
2017-02-10T09:26:16.739Z,258.63
2017-02-10T09:27:16.710Z,255.78
2017-02-10T09:28:16.719Z,254.41
2017-02-10T09:29:16.704Z,253.93
2017-02-10T09:30:16.703Z,253.08
2017-02-10T09:31:16.715Z,252.28
2017-02-10T09:32:16.709Z,252.09
2017-02-10T09:33:16.705Z,252.07
2017-02-10T09:34:16.710Z,251.32
2017-02-10T09:35:16.712Z,250.69
2017-02-10T09:36:16.753Z,249.96
2017-02-10T09:37:16.703Z,250.65
2017-02-10T09:38:16.717Z,251.88
2017-02-10T09:39:16.704Z,253.47
2017-02-10T09:40:17.102Z,256.49
2017-02-10T09:41:16.760Z,260.95
2017-02-10T09:42:16.719Z,265.35
2017-02-10T09:43:16.720Z,269.99
2017-02-10T09:44:16.716Z,276.21
2017-02-10T09:45:16.732Z,281.06
2017-02-10T09:46:16.742Z,283.75
2017-02-10T09:47:16.729Z,287.05
2017-02-10T09:48:16.726Z,287.92
2017-02-10T09:49:16.730Z,287.41
2017-02-10T09:50:16.722Z,287.61
2017-02-10T09:51:16.737Z,289.05
2017-02-10T09:52:16.716Z,288.11
2017-02-10T09:53:16.713Z,287.3
2017-02-10T09:54:16.720Z,285.68
2017-02-10T09:55:16.724Z,286.12
2017-02-10T09:56:16.719Z,285.91
2017-02-10T09:57:17.692Z,285.86
2017-02-10T09:58:17.505Z,287.48
2017-02-10T09:59:17.689Z,291.41
2017-02-10T10:00:17.492Z,293.61
2017-02-10T10:01:17.585Z,297.05
2017-02-10T10:02:16.873Z,300.54
2017-02-10T10:03:17.547Z,301.87
2017-02-10T10:04:16.734Z,304.38
2017-02-10T10:05:17.527Z,305.03
2017-02-10T10:06:17.285Z,303.19
2017-02-10T10:07:17.335Z,301.09
2017-02-10T10:08:17.636Z,299.1
2017-02-10T10:09:18.470Z,297.44
2017-02-10T10:10:18.623Z,297.25
2017-02-10T10:11:17.712Z,294.31
2017-02-10T10:12:17.696Z,289.89
2017-02-10T10:13:17.333Z,286.65
2017-02-10T10:14:17.652Z,284.92
2017-02-10T10:15:17.139Z,283.47
2017-02-10T10:16:17.698Z,282.57
2017-02-10T10:17:17.806Z,281.89
2017-02-10T10:18:17.742Z,280.55
2017-02-10T10:19:17.358Z,280.97
2017-02-10T10:20:17.360Z,281.4
2017-02-10T10:21:17.901Z,280.99
2017-02-10T10:22:17.409Z,278.32
2017-02-10T10:23:17.548Z,280.61
2017-02-10T10:24:17.866Z,280.23
2017-02-10T10:25:17.579Z,278.61
2017-02-10T10:26:17.759Z,277.94
2017-02-10T10:27:19.309Z,278.65
2017-02-10T10:28:17.789Z,277.72
2017-02-10T10:29:17.783Z,274.69
2017-02-10T10:30:17.499Z,272.9
2017-02-10T10:31:18.580Z,271.42
2017-02-10T10:32:17.648Z,271.63
2017-02-10T10:33:17.378Z,274.06
2017-02-10T10:34:17.967Z,273.8
2017-02-10T10:35:17.603Z,273.62
2017-02-10T10:36:17.747Z,273.61
2017-02-10T10:37:17.948Z,273.58
2017-02-10T10:38:19.942Z,275.5
2017-02-10T10:39:17.307Z,275.72
2017-02-10T10:40:17.846Z,274.13
2017-02-10T10:41:17.254Z,273.1
2017-02-10T10:42:16.962Z,273.38
2017-02-10T10:43:17.255Z,274.54
2017-02-10T10:44:17.659Z,276.44
2017-02-10T10:45:17.794Z,277.27
2017-02-10T10:46:17.209Z,280.51
2017-02-10T10:47:18.419Z,282.11
2017-02-10T10:48:17.766Z,283.98
2017-02-10T10:49:17.420Z,285.22
2017-02-10T10:50:17.536Z,287.49
2017-02-10T10:51:17.868Z,287.95
2017-02-10T10:52:19.508Z,287.01
2017-02-10T10:53:18.598Z,286.55
2017-02-10T10:54:17.642Z,287.17
2017-02-10T10:55:17.975Z,287.16
2017-02-10T10:56:17.867Z,287.26
2017-02-10T10:57:17.207Z,287.97
2017-02-10T10:58:17.547Z,287.88
2017-02-10T10:59:17.801Z,288.31
2017-02-10T11:00:17.654Z,288.47
2017-02-10T11:01:17.267Z,291.03
2017-02-10T11:02:16.790Z,294.71
2017-02-10T11:03:17.843Z,296.76
2017-02-10T11:04:17.553Z,296.07
2017-02-10T11:05:18.032Z,295.91
2017-02-10T11:06:17.531Z,296.86
2017-02-10T11:07:18.257Z,296.82
2017-02-10T11:08:17.475Z,297.77
2017-02-10T11:09:19.593Z,297.57
2017-02-10T11:10:18.416Z,295.07
2017-02-10T11:11:17.594Z,293.2
2017-02-10T11:12:16.865Z,292
2017-02-10T11:13:17.031Z,292.68
2017-02-10T11:14:16.765Z,292.63
2017-02-10T11:15:16.871Z,293.39
2017-02-10T11:16:16.789Z,294.22
2017-02-10T11:17:16.778Z,295.14
2017-02-10T11:18:16.772Z,296.08
2017-02-10T11:19:16.868Z,296.95
2017-02-10T11:20:16.781Z,297.58
2017-02-10T11:21:16.791Z,299.66
2017-02-10T11:22:16.941Z,300.11
2017-02-10T11:23:16.775Z,301.5
2017-02-10T11:24:16.821Z,303.02
2017-02-10T11:25:17.294Z,303.98
2017-02-10T11:26:16.792Z,302.64
2017-02-10T11:27:16.791Z,299.36
2017-02-10T11:28:16.804Z,296.82
2017-02-10T11:29:16.792Z,293.38
2017-02-10T11:30:17.311Z,290.42
2017-02-10T11:31:16.777Z,288.89
2017-02-10T11:32:16.814Z,285.77
2017-02-10T11:33:16.785Z,287.55
2017-02-10T11:34:16.788Z,287.65
2017-02-10T11:35:16.802Z,287.83
2017-02-10T11:36:16.786Z,290.34
2017-02-10T11:37:16.793Z,290.72
2017-02-10T11:38:16.828Z,293.27
2017-02-10T11:39:16.826Z,296.52
2017-02-10T11:40:16.789Z,298.76
2017-02-10T11:41:16.792Z,299.92
2017-02-10T11:42:16.838Z,303.56
2017-02-10T11:43:16.903Z,304.79
2017-02-10T11:44:16.794Z,306.08
2017-02-10T11:45:16.809Z,307.45
2017-02-10T11:46:16.780Z,307.2
2017-02-10T11:47:16.899Z,305.87
2017-02-10T11:48:16.809Z,304.23
2017-02-10T11:49:16.795Z,305.33
2017-02-10T11:50:16.798Z,303.77
2017-02-10T11:51:16.898Z,300.76
2017-02-10T11:52:16.794Z,299.14
2017-02-10T11:53:16.793Z,297.31
2017-02-10T11:54:16.802Z,294.53
2017-02-10T11:55:16.804Z,292.9
2017-02-10T11:56:16.810Z,292.25
2017-02-10T11:57:16.801Z,292.17
2017-02-10T11:58:16.805Z,293.8
2017-02-10T11:59:16.917Z,295.87
2017-02-10T12:00:16.934Z,298.47
2017-02-10T12:01:16.803Z,300.44
2017-02-10T12:02:16.797Z,304.56
2017-02-10T12:03:16.799Z,305.68
2017-02-10T12:04:16.829Z,308.68
2017-02-10T12:05:16.799Z,308.6
2017-02-10T12:06:16.811Z,310.14
2017-02-10T12:07:16.805Z,311.29
2017-02-10T12:08:16.803Z,312.19
2017-02-10T12:09:16.805Z,310.34
2017-02-10T12:10:16.808Z,308.46
2017-02-10T12:11:16.804Z,307.41
2017-02-10T12:12:16.805Z,307.8
2017-02-10T12:13:16.814Z,307.43
2017-02-10T12:14:16.822Z,307.59
2017-02-10T12:15:16.804Z,308.66
2017-02-10T12:16:16.817Z,312.35
2017-02-10T12:17:16.875Z,313.44
2017-02-10T12:18:16.813Z,314.73
2017-02-10T12:19:16.810Z,313.77
2017-02-10T12:20:16.825Z,311.54
2017-02-10T12:21:16.813Z,312.02
2017-02-10T12:22:16.817Z,309.98
2017-02-10T12:23:16.819Z,307.66
2017-02-10T12:24:16.813Z,305.61
2017-02-10T12:25:16.820Z,306.06
2017-02-10T12:26:16.808Z,305.6
2017-02-10T12:27:16.812Z,306.34
2017-02-10T12:28:16.818Z,306.76
2017-02-10T12:29:16.821Z,309.24
2017-02-10T12:30:16.824Z,309.24